This demonstration page uses our WeatherBlox Daily Observations layout. Learn more.

39.92423, -83.80882

Hourly Observations for September 7, 2017

Temp ( °F °C ) Dew Point ( °F °C ) Humidity (%) Winds ( mph kmh ) Pressure ( in mb ) Visibility ( mi km ) Precip ( " mm )
12:56 am 00:56 Clear 49 9.4 47 8.3 93 93 W 7 11 30 1016 10 16.09344 0 0
1:56 am 01:56 Clear 48 8.9 47 8.3 96 96 W 7 11 30 1016 10 16.09344 0 0
2:56 am 02:56 Clear 47 8.3 46 7.8 97 97 W 7 11 30 1016 10 16.09344 0 0
3:56 am 03:56 Clear 47 8.3 46 7.8 97 97 WSW 6 9 30 1016 10 16.09344 0 0
4:56 am 04:56 Clear 46 7.8 46 7.8 100 100 WSW 6 9 30 1016 10 16.09344 0 0
5:56 am 05:56 Clear 45 7.2 45 7.2 100 100 WSW 7 11 30.03 1017 10 16.09344 0 0
6:56 am 06:56 Clear 46 7.8 45 7.2 96 96 WSW 6 9 30.03 1017 10 16.09344 0 0
7:56 am 07:56 Sunny 47 8.3 47 8.3 100 100 SW 6 9 30.06 1018 10 16.09344 0 0
8:56 am 08:56 Sunny 52 11.1 50 10 93 93 WSW 7 11 30.06 1018 10 16.09344 0 0
9:56 am 09:56 Sunny 58 14.4 51 10.6 78 78 WSW 10 17 30.06 1018 10 16.09344 0.16 4.064
10:56 am 10:56 undefined 61 16.1 50 10 67 67 undefined N/A N/A N/A 0 0
11:56 am 11:56 Mostly Sunny 64 17.8 49 9.4 58 58 W 17 28 30.06 1018 10 16.09344 0 0
12:56 pm 12:56 Mostly Cloudy 66 18.9 48 8.9 52 52 W 10 17 30.06 1018 10 16.09344 0 0
1:56 pm 13:56 Cloudy 64 17.8 46 7.8 52 52 WSW 14 22 30.06 1018 10 16.09344 0 0
2:56 pm 14:56 Mostly Cloudy 67 19.4 48 8.9 51 51 W 12 19 30.06 1018 10 16.09344 0 0
3:56 pm 15:56 Cloudy 64 17.8 47 8.3 54 54 W 14 22 30.06 1018 10 16.09344 0 0
4:56 pm 16:56 Cloudy 65 18.3 48 8.9 54 54 W 14 22 30.06 1018 10 16.09344 0 0
5:56 pm 17:56 Cloudy 63 17.2 48 8.9 58 58 W 12 19 30.06 1018 10 16.09344 0 0
6:56 pm 18:56 Mostly Cloudy 63 17.2 48 8.9 58 58 W 12 19 30.06 1018 10 16.09344 0 0
7:56 pm 19:56 Mostly Cloudy 59 15 48 8.9 67 67 WSW 7 11 30.06 1018 10 16.09344 0 0
8:56 pm 20:56 Mostly Cloudy 57 13.9 49 9.4 74 74 SW 7 11 30.09 1019 10 16.09344 0 0
9:56 pm 21:56 Cloudy 56 13.3 51 10.6 84 84 SSW 3 6 30.09 1019 10 16.09344 0 0
10:56 pm 22:56 Cloudy 56 13.3 50 10 81 81 SW 7 11 30.09 1019 10 16.09344 0 0
11:56 pm 23:56 Partly Cloudy 53 11.7 49 9.4 86 86 SW 6 9 30.09 1019 10 16.09344 0 0

Powered by AerisWeather